Gas Grouper — V7TZ2 — position and weather

sailwx.info

Track history (hours):
 
Tides and Currents Weather Stations Pressure Air Temp Water Temp Dewpoint Dewpoint Depression Visibility Wind Speed Wind Dir Waves Ship Positions

Gas Grouper

Last reported at 2017-Nov-24 07:30 UTC. Time now 2017-Nov-24 07:44 UTC.
Position N 50°09' W 002°05'.

Length 174 m; draft 7.1 m.

Type: Ship (hazmat cat D). MMSI: 538003910.

Date/timePositionNaut miles runAvg speedWind from/ knotsBaromVisibWave heightAir tempDewpointWater temp
2017-Nov-24 07:30N 50°09' W 002°05'816.0
2017-Nov-24 07:00N 50°12' W 001°53'816.3
2017-Nov-24 06:30N 50°14' W 001°41'816.8
2017-Nov-24 06:00N 50°16' W 001°28'917.4
2017-Nov-24 05:30N 50°18' W 001°15'3217.1
2017-Nov-24 03:39N 50°26' W 000°27'216.6
2017-Nov-24 03:30N 50°26' W 000°23'816.2
2017-Nov-24 03:01N 50°29' W 000°11'815.7
2017-Nov-24 02:31N 50°31' E 000°01'815.5
2017-Nov-24 02:01N 50°33' E 000°13'815.0
2017-Nov-24 01:31N 50°35' E 000°24'714.7
2017-Nov-24 01:01N 50°37' E 000°35'714.7
2017-Nov-24 00:31N 50°42' E 000°44'714.6
2017-Nov-24 00:01N 50°46' E 000°54'714.8
2017-Nov-23 23:31N 50°50' E 001°03'815.5
2017-Nov-23 23:01N 50°56' E 001°12'816.3
2017-Nov-23 22:30N 51°01' E 001°22'917.3
2017-Nov-23 22:01N 51°06' E 001°32'917.0
2017-Nov-23 21:31N 51°12' E 001°43'816.2
2017-Nov-23 21:01N 51°18' E 001°51'815.1
2017-Nov-23 20:31N 51°24' E 001°59'612.9
2017-Nov-23 20:00N 51°22' E 002°09'713.7
2017-Nov-23 19:31N 51°21' E 002°19'714.1
2017-Nov-23 19:01N 51°23' E 002°30'713.5
2017-Nov-23 18:30N 51°23' E 002°41'4 8.4
2017-Nov-23 18:00N 51°22' E 002°47'713.2
2017-Nov-23 17:30N 51°23' E 002°58'612.9
2017-Nov-23 17:00N 51°24' E 003°08'713.5
2017-Nov-23 16:30N 51°25' E 003°19'713.8
2017-Nov-23 16:01N 51°25' E 003°30'4 8.9
2017-Nov-23 15:31N 51°26' E 003°37'2 4.9
2017-Nov-23 15:01N 51°26' E 003°41'611.3
2017-Nov-23 14:30N 51°22' E 003°46'510.0
2017-Nov-23 14:01N 51°22' E 003°54'510.8
2017-Nov-23 13:31N 51°26' E 003°59'510.2
2017-Nov-23 13:00N 51°22' E 004°04'510.7
2017-Nov-23 12:31N 51°24' E 004°13'4 8.0
2017-Nov-23 12:01N 51°21' E 004°17'0 0.0
2017-Nov-23 11:31N 51°21' E 004°17'0 0.0
2017-Nov-23 11:00N 51°21' E 004°17'1 1.3
2017-Nov-23 10:31N 51°21' E 004°18'1 1.0
2017-Nov-23 10:00N 51°22' E 004°18'0 0.0
2017-Nov-23 09:28N 51°22' E 004°18'0 0.0
2017-Nov-23 08:43N 51°22' E 004°18'0 0.0
2017-Nov-23 08:25N 51°22' E 004°18'0 0.0
2017-Nov-23 07:55N 51°22' E 004°18'0 0.0
2017-Nov-23 07:28N 51°22' E 004°18'0 0.0
2017-Nov-23 06:55N 51°22' E 004°18'0 0.0
2017-Nov-23 06:28N 51°22' E 004°18'0 0.0
2017-Nov-23 05:58N 51°22' E 004°18'0 0.0
2017-Nov-23 05:28N 51°22' E 004°18'0 0.0
2017-Nov-23 04:58N 51°22' E 004°18'0 0.0
2017-Nov-23 04:25N 51°22' E 004°18'0 0.0
2017-Nov-23 03:58N 51°22' E 004°18'0 0.0
2017-Nov-23 03:25N 51°22' E 004°18'0 0.0
2017-Nov-23 02:49N 51°22' E 004°18'0 0.0
2017-Nov-23 02:25N 51°22' E 004°18'0 0.0
2017-Nov-23 01:58N 51°22' E 004°18'0 0.0
2017-Nov-23 01:28N 51°22' E 004°18'0 0.0
2017-Nov-23 00:58N 51°22' E 004°18'0 0.0
2017-Nov-23 00:25N 51°22' E 004°18'0 0.0
2017-Nov-22 23:52N 51°22' E 004°18'0 0.0
2017-Nov-22 23:28N 51°22' E 004°18'0 0.0
2017-Nov-22 22:58N 51°22' E 004°18'0 0.0
2017-Nov-22 22:28N 51°22' E 004°18'0 0.0
2017-Nov-22 21:58N 51°22' E 004°18'0 0.0
2017-Nov-22 21:28N 51°22' E 004°18'0 0.0
2017-Nov-22 20:58N 51°22' E 004°18'0 0.0
2017-Nov-22 20:28N 51°22' E 004°18'0 0.0
2017-Nov-22 19:58N 51°22' E 004°18'0 0.0
2017-Nov-22 19:28N 51°22' E 004°18'  
2017-Nov-19 00:08N 40°27' W 009°57'214.8
2017-Nov-19 00:00N 40°25' W 009°57'4514.6
2017-Nov-18 20:56N 39°40' W 009°57'914.5
2017-Nov-18 20:20N 39°31' W 009°57'514.4
2017-Nov-18 20:00N 39°26' W 009°57'714.4
2017-Nov-18 19:30N 39°19' W 009°57'714.4
2017-Nov-18 19:00N 39°12' W 009°57'714.6
2017-Nov-18 18:30N 39°05' W 009°57'714.3
2017-Nov-18 18:00N 38°57' W 009°57'714.3
2017-Nov-18 17:30N 38°50' W 009°57'714.3
2017-Nov-18 17:01N 38°43' W 009°56'714.3
2017-Nov-18 16:31N 38°36' W 009°55'714.3
2017-Nov-18 16:01N 38°29' W 009°53'714.2
2017-Nov-18 15:31N 38°22' W 009°51'714.8
2017-Nov-18 15:00N 38°15' W 009°49'714.9
2017-Nov-18 14:31N 38°08' W 009°47'714.6
2017-Nov-18 14:01N 38°01' W 009°44'714.9
2017-Nov-18 13:31N 37°54' W 009°41'815.0
2017-Nov-18 13:00N 37°46' W 009°39'714.9
2017-Nov-18 12:31N 37°39' W 009°37'714.6
2017-Nov-18 12:01N 37°32' W 009°36'714.9
2017-Nov-18 11:31N 37°24' W 009°34'714.9
2017-Nov-18 11:00N 37°17' W 009°32'714.7
2017-Nov-18 10:31N 37°10' W 009°30'714.8
2017-Nov-18 10:01N 37°03' W 009°28'714.5
2017-Nov-18 09:30N 36°56' W 009°26'714.1
2017-Nov-18 09:00N 36°49' W 009°22'1215.0
2017-Nov-18 08:14N 36°41' W 009°12'415.4
2017-Nov-18 08:00N 36°40' W 009°08'17415.5
2017-Nov-17 20:46N 35°58' W 005°38'413.5
2017-Nov-17 20:30N 35°59' W 005°34'713.3
2017-Nov-17 19:59N 36°01' W 005°26'612.9
2017-Nov-17 19:31N 36°02' W 005°18'714.7
2017-Nov-17 19:01N 36°05' W 005°10'  
2017-Nov-15 02:29N 36°30' E 013°45'714.3
2017-Nov-15 01:59N 36°29' E 013°54'714.4
2017-Nov-15 01:29N 36°27' E 014°02'714.5
2017-Nov-15 01:00N 36°26' E 014°11'714.6
2017-Nov-15 00:30N 36°24' E 014°19'714.5
2017-Nov-15 00:00N 36°21' E 014°28'714.8
2017-Nov-14 23:30N 36°19' E 014°37'714.4
2017-Nov-14 23:00N 36°17' E 014°45'  
Track history (hours):
 
Tides and Currents Weather Stations Pressure Air Temp Water Temp Dewpoint Dewpoint Depression Visibility Wind Speed Wind Dir Waves Ship Positions

Gas Grouper

Last reported at 2017-Nov-24 07:30 UTC. Time now 2017-Nov-24 07:44 UTC.
Position N 50°09' W 002°05'.

Length 174 m; draft 7.1 m.

Type: Ship (hazmat cat D). MMSI: 538003910.

Date/timePositionNaut miles runAvg speedWind from/ knotsBaromVisibWave heightAir tempDewpointWater temp
2017-Nov-24 07:30N 50°09' W 002°05'816.0
2017-Nov-24 07:00N 50°12' W 001°53'816.3
2017-Nov-24 06:30N 50°14' W 001°41'816.8
2017-Nov-24 06:00N 50°16' W 001°28'917.4
2017-Nov-24 05:30N 50°18' W 001°15'3217.1
2017-Nov-24 03:39N 50°26' W 000°27'216.6
2017-Nov-24 03:30N 50°26' W 000°23'816.2
2017-Nov-24 03:01N 50°29' W 000°11'815.7
2017-Nov-24 02:31N 50°31' E 000°01'815.5
2017-Nov-24 02:01N 50°33' E 000°13'815.0
2017-Nov-24 01:31N 50°35' E 000°24'714.7
2017-Nov-24 01:01N 50°37' E 000°35'714.7
2017-Nov-24 00:31N 50°42' E 000°44'714.6
2017-Nov-24 00:01N 50°46' E 000°54'714.8
2017-Nov-23 23:31N 50°50' E 001°03'815.5
2017-Nov-23 23:01N 50°56' E 001°12'816.3
2017-Nov-23 22:30N 51°01' E 001°22'917.3
2017-Nov-23 22:01N 51°06' E 001°32'917.0
2017-Nov-23 21:31N 51°12' E 001°43'816.2
2017-Nov-23 21:01N 51°18' E 001°51'815.1
2017-Nov-23 20:31N 51°24' E 001°59'612.9
2017-Nov-23 20:00N 51°22' E 002°09'713.7
2017-Nov-23 19:31N 51°21' E 002°19'714.1
2017-Nov-23 19:01N 51°23' E 002°30'713.5
2017-Nov-23 18:30N 51°23' E 002°41'4 8.4
2017-Nov-23 18:00N 51°22' E 002°47'713.2
2017-Nov-23 17:30N 51°23' E 002°58'612.9
2017-Nov-23 17:00N 51°24' E 003°08'713.5
2017-Nov-23 16:30N 51°25' E 003°19'713.8
2017-Nov-23 16:01N 51°25' E 003°30'4 8.9
2017-Nov-23 15:31N 51°26' E 003°37'2 4.9
2017-Nov-23 15:01N 51°26' E 003°41'611.3
2017-Nov-23 14:30N 51°22' E 003°46'510.0
2017-Nov-23 14:01N 51°22' E 003°54'510.8
2017-Nov-23 13:31N 51°26' E 003°59'510.2
2017-Nov-23 13:00N 51°22' E 004°04'510.7
2017-Nov-23 12:31N 51°24' E 004°13'4 8.0
2017-Nov-23 12:01N 51°21' E 004°17'0 0.0
2017-Nov-23 11:31N 51°21' E 004°17'0 0.0
2017-Nov-23 11:00N 51°21' E 004°17'1 1.3
2017-Nov-23 10:31N 51°21' E 004°18'1 1.0
2017-Nov-23 10:00N 51°22' E 004°18'0 0.0
2017-Nov-23 09:28N 51°22' E 004°18'0 0.0
2017-Nov-23 08:43N 51°22' E 004°18'0 0.0
2017-Nov-23 08:25N 51°22' E 004°18'0 0.0
2017-Nov-23 07:55N 51°22' E 004°18'0 0.0
2017-Nov-23 07:28N 51°22' E 004°18'0 0.0
2017-Nov-23 06:55N 51°22' E 004°18'0 0.0
2017-Nov-23 06:28N 51°22' E 004°18'0 0.0
2017-Nov-23 05:58N 51°22' E 004°18'0 0.0
2017-Nov-23 05:28N 51°22' E 004°18'0 0.0
2017-Nov-23 04:58N 51°22' E 004°18'0 0.0
2017-Nov-23 04:25N 51°22' E 004°18'0 0.0
2017-Nov-23 03:58N 51°22' E 004°18'0 0.0
2017-Nov-23 03:25N 51°22' E 004°18'0 0.0
2017-Nov-23 02:49N 51°22' E 004°18'0 0.0
2017-Nov-23 02:25N 51°22' E 004°18'0 0.0
2017-Nov-23 01:58N 51°22' E 004°18'0 0.0
2017-Nov-23 01:28N 51°22' E 004°18'0 0.0
2017-Nov-23 00:58N 51°22' E 004°18'0 0.0
2017-Nov-23 00:25N 51°22' E 004°18'0 0.0
2017-Nov-22 23:52N 51°22' E 004°18'0 0.0
2017-Nov-22 23:28N 51°22' E 004°18'0 0.0
2017-Nov-22 22:58N 51°22' E 004°18'0 0.0
2017-Nov-22 22:28N 51°22' E 004°18'0 0.0
2017-Nov-22 21:58N 51°22' E 004°18'0 0.0
2017-Nov-22 21:28N 51°22' E 004°18'0 0.0
2017-Nov-22 20:58N 51°22' E 004°18'0 0.0
2017-Nov-22 20:28N 51°22' E 004°18'0 0.0
2017-Nov-22 19:58N 51°22' E 004°18'0 0.0
2017-Nov-22 19:28N 51°22' E 004°18'  
2017-Nov-19 00:08N 40°27' W 009°57'214.8
2017-Nov-19 00:00N 40°25' W 009°57'4514.6
2017-Nov-18 20:56N 39°40' W 009°57'914.5
2017-Nov-18 20:20N 39°31' W 009°57'514.4
2017-Nov-18 20:00N 39°26' W 009°57'714.4
2017-Nov-18 19:30N 39°19' W 009°57'714.4
2017-Nov-18 19:00N 39°12' W 009°57'714.6
2017-Nov-18 18:30N 39°05' W 009°57'714.3
2017-Nov-18 18:00N 38°57' W 009°57'714.3
2017-Nov-18 17:30N 38°50' W 009°57'714.3
2017-Nov-18 17:01N 38°43' W 009°56'714.3
2017-Nov-18 16:31N 38°36' W 009°55'714.3
2017-Nov-18 16:01N 38°29' W 009°53'714.2
2017-Nov-18 15:31N 38°22' W 009°51'714.8
2017-Nov-18 15:00N 38°15' W 009°49'714.9
2017-Nov-18 14:31N 38°08' W 009°47'714.6
2017-Nov-18 14:01N 38°01' W 009°44'714.9
2017-Nov-18 13:31N 37°54' W 009°41'815.0
2017-Nov-18 13:00N 37°46' W 009°39'714.9
2017-Nov-18 12:31N 37°39' W 009°37'714.6
2017-Nov-18 12:01N 37°32' W 009°36'714.9
2017-Nov-18 11:31N 37°24' W 009°34'714.9
2017-Nov-18 11:00N 37°17' W 009°32'714.7
2017-Nov-18 10:31N 37°10' W 009°30'714.8
2017-Nov-18 10:01N 37°03' W 009°28'714.5
2017-Nov-18 09:30N 36°56' W 009°26'714.1
2017-Nov-18 09:00N 36°49' W 009°22'1215.0
2017-Nov-18 08:14N 36°41' W 009°12'415.4
2017-Nov-18 08:00N 36°40' W 009°08'17415.5
2017-Nov-17 20:46N 35°58' W 005°38'413.5
2017-Nov-17 20:30N 35°59' W 005°34'713.3
2017-Nov-17 19:59N 36°01' W 005°26'612.9
2017-Nov-17 19:31N 36°02' W 005°18'714.7
2017-Nov-17 19:01N 36°05' W 005°10'  
2017-Nov-15 02:29N 36°30' E 013°45'714.3
2017-Nov-15 01:59N 36°29' E 013°54'714.4
2017-Nov-15 01:29N 36°27' E 014°02'714.5
2017-Nov-15 01:00N 36°26' E 014°11'714.6
2017-Nov-15 00:30N 36°24' E 014°19'714.5
2017-Nov-15 00:00N 36°21' E 014°28'714.8
2017-Nov-14 23:30N 36°19' E 014°37'714.4
2017-Nov-14 23:00N 36°17' E 014°45'  

Dump ship's entire track history